UAE9843 VHHH-OMDW
Flight info
| Callsign | UAE9843 |
|---|---|
| Flight time | N/A |
| Altitude | 34000 |
| Route | PECAN V10 SIKOU/K0919S1040 A202 ASSAD/K0920F340 A206 NALAO/N0497F340 A206 LPB B465 CEA A791 JJS/N0493F360 A791 BPL L639 MILUP/N0487F380 L639 RASKI L301 RAGMA N571 VUSET A454 PASOV M564 UMAMI |
| Aircraft | B77L/H-SDE1E2E3FGHIJ2J3J4J5M1RWXY/LB1D1 |
Departure
| Time | 2026-05-04 23:56 |
|---|---|
| Airport | Hong Kong International Airport (VHHH) |
Arrival
| Time | N/A |
|---|---|
| Airport | Al Maktoum International Airport (OMDW) |
| Time | Latitude | Longitude | Altitude | Speed | Heading |
|---|---|---|---|---|---|
| 2026-05-04 23:21 | 22.31326 | 113.91746 | 35 ft | 0 kts | 251° |
| 2026-05-04 23:27 | 22.30072 | 113.92143 | 36 ft | 0 kts | 341° |
| 2026-05-04 23:39 | 22.30072 | 113.92144 | 36 ft | 1 kts | 341° |
| 2026-05-04 23:39 | 22.30049 | 113.92152 | 35 ft | 4 kts | 341° |
| 2026-05-04 23:39 | 22.30029 | 113.92159 | 36 ft | 0 kts | 341° |
| 2026-05-04 23:41 | 22.30030 | 113.92159 | 36 ft | 0 kts | 341° |
| 2026-05-04 23:42 | 22.30031 | 113.92159 | 36 ft | 0 kts | 346° |
| 2026-05-04 23:42 | 22.30033 | 113.92160 | 34 ft | 1 kts | 357° |
| 2026-05-04 23:42 | 22.30041 | 113.92170 | 35 ft | 2 kts | 62° |
| 2026-05-04 23:42 | 22.30034 | 113.92183 | 36 ft | 2 kts | 135° |
| 2026-05-04 23:43 | 22.30022 | 113.92194 | 36 ft | 2 kts | 136° |
| 2026-05-04 23:43 | 22.30014 | 113.92210 | 36 ft | 3 kts | 110° |
| 2026-05-04 23:43 | 22.30010 | 113.92229 | 36 ft | 3 kts | 97° |
| 2026-05-04 23:43 | 22.30012 | 113.92251 | 36 ft | 3 kts | 83° |
| 2026-05-04 23:44 | 22.30017 | 113.92273 | 36 ft | 3 kts | 73° |
| 2026-05-04 23:44 | 22.30024 | 113.92295 | 36 ft | 3 kts | 72° |
| 2026-05-04 23:44 | 22.30031 | 113.92320 | 36 ft | 4 kts | 73° |
| 2026-05-04 23:44 | 22.30039 | 113.92350 | 36 ft | 5 kts | 73° |
| 2026-05-04 23:45 | 22.30051 | 113.92390 | 36 ft | 6 kts | 70° |
| 2026-05-04 23:45 | 22.30068 | 113.92440 | 36 ft | 8 kts | 69° |
| 2026-05-04 23:45 | 22.30090 | 113.92503 | 36 ft | 10 kts | 70° |
| 2026-05-04 23:45 | 22.30114 | 113.92577 | 36 ft | 11 kts | 70° |
| 2026-05-04 23:46 | 22.30141 | 113.92665 | 36 ft | 13 kts | 72° |
| 2026-05-04 23:46 | 22.30196 | 113.92736 | 36 ft | 13 kts | 8° |
| 2026-05-04 23:46 | 22.30291 | 113.92713 | 36 ft | 15 kts | 342° |
| 2026-05-04 23:46 | 22.30348 | 113.92632 | 36 ft | 16 kts | 260° |
| 2026-05-04 23:47 | 22.30311 | 113.92513 | 36 ft | 18 kts | 250° |
| 2026-05-04 23:47 | 22.30267 | 113.92382 | 36 ft | 19 kts | 250° |
| 2026-05-04 23:47 | 22.30219 | 113.92239 | 36 ft | 21 kts | 250° |
| 2026-05-04 23:47 | 22.30176 | 113.92106 | 36 ft | 17 kts | 252° |
| 2026-05-04 23:48 | 22.30139 | 113.91983 | 36 ft | 17 kts | 252° |
| 2026-05-04 23:48 | 22.30101 | 113.91859 | 35 ft | 17 kts | 251° |
| 2026-05-04 23:48 | 22.30062 | 113.91737 | 36 ft | 17 kts | 250° |
| 2026-05-04 23:48 | 22.30035 | 113.91615 | 36 ft | 17 kts | 288° |
| 2026-05-04 23:49 | 22.30134 | 113.91556 | 36 ft | 17 kts | 340° |
| 2026-05-04 23:49 | 22.30155 | 113.91451 | 36 ft | 17 kts | 244° |
| 2026-05-04 23:49 | 22.30112 | 113.91334 | 36 ft | 17 kts | 258° |
| 2026-05-04 23:49 | 22.30107 | 113.91206 | 36 ft | 17 kts | 274° |
| 2026-05-04 23:50 | 22.30123 | 113.91078 | 36 ft | 17 kts | 280° |
| 2026-05-04 23:50 | 22.30148 | 113.90954 | 36 ft | 17 kts | 282° |
| 2026-05-04 23:50 | 22.30136 | 113.90829 | 36 ft | 17 kts | 249° |
| 2026-05-04 23:50 | 22.30165 | 113.90721 | 37 ft | 17 kts | 324° |
| 2026-05-04 23:51 | 22.30276 | 113.90674 | 37 ft | 17 kts | 345° |
| 2026-05-04 23:51 | 22.30391 | 113.90641 | 37 ft | 17 kts | 345° |
| 2026-05-04 23:51 | 22.30504 | 113.90595 | 37 ft | 17 kts | 338° |
| 2026-05-04 23:51 | 22.30616 | 113.90551 | 37 ft | 17 kts | 342° |
| 2026-05-04 23:52 | 22.30730 | 113.90511 | 37 ft | 17 kts | 341° |
| 2026-05-04 23:52 | 22.30844 | 113.90470 | 37 ft | 17 kts | 341° |
| 2026-05-04 23:52 | 22.30957 | 113.90428 | 37 ft | 17 kts | 339° |
| 2026-05-04 23:52 | 22.30979 | 113.90314 | 37 ft | 17 kts | 253° |
| 2026-05-04 23:53 | 22.30939 | 113.90190 | 37 ft | 17 kts | 251° |
| 2026-05-04 23:53 | 22.30913 | 113.90065 | 37 ft | 17 kts | 285° |
| 2026-05-04 23:53 | 22.30956 | 113.89951 | 37 ft | 17 kts | 271° |
| 2026-05-04 23:53 | 22.30991 | 113.89899 | 37 ft | 0 kts | 342° |
| 2026-05-04 23:54 | 22.30994 | 113.89898 | 36 ft | 1 kts | 342° |
| 2026-05-04 23:55 | 22.31010 | 113.89892 | 36 ft | 4 kts | 342° |
| 2026-05-04 23:55 | 22.31057 | 113.89876 | 34 ft | 8 kts | 342° |
| 2026-05-04 23:55 | 22.31148 | 113.89932 | 34 ft | 9 kts | 74° |
| 2026-05-04 23:56 | 22.31189 | 113.90083 | 35 ft | 56 kts | 73° |
| 2026-05-04 23:56 | 22.31425 | 113.90829 | 37 ft | 152 kts | 72° |
| 2026-05-04 23:56 | 22.31791 | 113.92080 | 660 ft | 176 kts | 74° |
| 2026-05-04 23:56 | 22.32075 | 113.93367 | 1917 ft | 178 kts | 81° |
| 2026-05-04 23:57 | 22.32393 | 113.94742 | 2491 ft | 200 kts | 73° |
| 2026-05-04 23:57 | 22.32894 | 113.96189 | 3039 ft | 211 kts | 71° |
| 2026-05-04 23:57 | 22.33600 | 113.97635 | 3497 ft | 225 kts | 54° |
| 2026-05-04 23:57 | 22.34582 | 113.98938 | 4038 ft | 231 kts | 53° |
| 2026-05-04 23:58 | 22.35523 | 114.00326 | 4704 ft | 236 kts | 54° |
| 2026-05-04 23:58 | 22.36478 | 114.01805 | 5414 ft | 238 kts | 54° |
| 2026-05-04 23:58 | 22.37418 | 114.03281 | 6145 ft | 239 kts | 54° |
| 2026-05-04 23:58 | 22.38367 | 114.04781 | 6823 ft | 244 kts | 54° |
| 2026-05-04 23:59 | 22.39314 | 114.06285 | 7466 ft | 247 kts | 54° |
| 2026-05-04 23:59 | 22.40136 | 114.07923 | 7993 ft | 251 kts | 77° |
| 2026-05-04 23:59 | 22.40065 | 114.09838 | 8305 ft | 267 kts | 112° |
| 2026-05-04 23:59 | 22.39198 | 114.11707 | 8504 ft | 286 kts | 119° |
| 2026-05-05 00:00 | 22.38323 | 114.13668 | 8997 ft | 300 kts | 116° |
| 2026-05-05 00:00 | 22.38030 | 114.14370 | 9219 ft | 304 kts | 115° |
| 2026-05-05 00:00 | 22.36595 | 114.17896 | 10465 ft | 314 kts | 115° |
| 2026-05-05 00:00 | 22.35691 | 114.20131 | 10798 ft | 338 kts | 115° |
| 2026-05-05 00:01 | 22.34710 | 114.22557 | 10999 ft | 364 kts | 115° |
| 2026-05-05 00:01 | 22.33649 | 114.25130 | 11215 ft | 382 kts | 118° |
| 2026-05-05 00:01 | 22.32094 | 114.27460 | 11494 ft | 388 kts | 142° |
| 2026-05-05 00:01 | 22.29757 | 114.28866 | 12153 ft | 384 kts | 163° |
| 2026-05-05 00:02 | 22.27232 | 114.29745 | 12662 ft | 385 kts | 161° |
| 2026-05-05 00:02 | 22.24735 | 114.30924 | 13327 ft | 392 kts | 156° |
| 2026-05-05 00:02 | 22.22409 | 114.32432 | 14044 ft | 396 kts | 144° |
| 2026-05-05 00:02 | 22.20286 | 114.34344 | 14642 ft | 401 kts | 142° |
| 2026-05-05 00:03 | 22.18077 | 114.36216 | 15252 ft | 406 kts | 146° |
| 2026-05-05 00:03 | 22.16559 | 114.37406 | 15699 ft | 410 kts | 147° |
| 2026-05-05 00:03 | 22.13433 | 114.39828 | 16688 ft | 413 kts | 147° |
| 2026-05-05 00:03 | 22.11033 | 114.41530 | 17097 ft | 415 kts | 158° |
| 2026-05-05 00:04 | 22.09235 | 114.42189 | 17350 ft | 416 kts | 174° |
| 2026-05-05 00:04 | 22.06364 | 114.42109 | 18156 ft | 412 kts | 196° |
| 2026-05-05 00:04 | 22.02819 | 114.40669 | 19167 ft | 408 kts | 213° |
| 2026-05-05 00:04 | 22.01239 | 114.39560 | 19576 ft | 410 kts | 218° |
| 2026-05-05 00:05 | 21.98925 | 114.37741 | 20100 ft | 415 kts | 218° |
| 2026-05-05 00:05 | 21.96542 | 114.35961 | 20514 ft | 422 kts | 217° |
| 2026-05-05 00:05 | 21.93326 | 114.33483 | 21265 ft | 424 kts | 220° |
| 2026-05-05 00:05 | 21.91789 | 114.32178 | 21676 ft | 424 kts | 221° |
| 2026-05-05 00:06 | 21.89490 | 114.30170 | 22405 ft | 427 kts | 222° |
| 2026-05-05 00:06 | 21.87183 | 114.28149 | 23073 ft | 430 kts | 222° |
| 2026-05-05 00:06 | 21.84844 | 114.26116 | 23581 ft | 433 kts | 223° |
| 2026-05-05 00:06 | 21.82491 | 114.24093 | 24071 ft | 434 kts | 223° |
| 2026-05-05 00:07 | 21.80119 | 114.22063 | 24532 ft | 436 kts | 223° |
| 2026-05-05 00:07 | 21.77730 | 114.20029 | 24953 ft | 439 kts | 223° |
| 2026-05-05 00:07 | 21.75326 | 114.17988 | 25403 ft | 441 kts | 223° |
| 2026-05-05 00:07 | 21.72917 | 114.15943 | 25847 ft | 444 kts | 223° |
| 2026-05-05 00:08 | 21.70483 | 114.13875 | 26216 ft | 447 kts | 223° |
| 2026-05-05 00:08 | 21.68036 | 114.11798 | 26604 ft | 449 kts | 223° |
| 2026-05-05 00:08 | 21.65566 | 114.09743 | 26943 ft | 449 kts | 220° |
| 2026-05-05 00:08 | 21.62765 | 114.08132 | 27080 ft | 469 kts | 203° |
| 2026-05-05 00:09 | 21.59548 | 114.07433 | 27300 ft | 472 kts | 194° |
| 2026-05-05 00:09 | 21.56286 | 114.06815 | 27381 ft | 477 kts | 198° |
| 2026-05-05 00:09 | 21.53065 | 114.05961 | 27760 ft | 479 kts | 200° |
| 2026-05-05 00:09 | 21.49834 | 114.05054 | 28226 ft | 479 kts | 200° |
| 2026-05-05 00:10 | 21.46596 | 114.04185 | 28663 ft | 481 kts | 199° |
| 2026-05-05 00:10 | 21.43392 | 114.03225 | 28945 ft | 474 kts | 206° |
| 2026-05-05 00:10 | 21.40522 | 114.01559 | 28980 ft | 467 kts | 220° |
| 2026-05-05 00:10 | 21.37912 | 113.99453 | 29166 ft | 471 kts | 221° |
| 2026-05-05 00:11 | 21.35240 | 113.97388 | 29468 ft | 474 kts | 219° |
| 2026-05-05 00:11 | 21.32507 | 113.95403 | 29830 ft | 476 kts | 218° |
| 2026-05-05 00:11 | 21.29731 | 113.93446 | 30128 ft | 477 kts | 218° |
| 2026-05-05 00:11 | 21.26945 | 113.91500 | 30395 ft | 479 kts | 218° |
| 2026-05-05 00:12 | 21.24160 | 113.89553 | 30729 ft | 478 kts | 218° |
| 2026-05-05 00:12 | 21.21383 | 113.87605 | 31109 ft | 476 kts | 218° |
| 2026-05-05 00:12 | 21.18654 | 113.85683 | 31497 ft | 474 kts | 218° |
| 2026-05-05 00:12 | 21.15868 | 113.83719 | 31896 ft | 473 kts | 218° |
| 2026-05-05 00:13 | 21.13132 | 113.81782 | 32259 ft | 469 kts | 219° |
| 2026-05-05 00:13 | 21.10670 | 113.79603 | 32456 ft | 464 kts | 231° |
| 2026-05-05 00:13 | 21.08681 | 113.76906 | 32752 ft | 459 kts | 240° |
| 2026-05-05 00:13 | 21.07097 | 113.73958 | 33165 ft | 454 kts | 247° |
| 2026-05-05 00:14 | 21.05951 | 113.70829 | 33549 ft | 450 kts | 253° |
| 2026-05-05 00:14 | 21.04978 | 113.67648 | 33900 ft | 450 kts | 253° |
| 2026-05-05 00:14 | 21.03980 | 113.64455 | 33926 ft | 454 kts | 253° |
| 2026-05-05 00:15 | 21.01937 | 113.58051 | 33994 ft | 453 kts | 252° |
| 2026-05-05 00:15 | 20.99883 | 113.51703 | 33998 ft | 451 kts | 252° |
| 2026-05-05 00:16 | 20.97823 | 113.45368 | 33997 ft | 449 kts | 252° |
| 2026-05-05 00:16 | 20.95767 | 113.39056 | 33996 ft | 449 kts | 252° |
| 2026-05-05 00:17 | 20.93709 | 113.32743 | 34001 ft | 450 kts | 252° |
| 2026-05-05 00:17 | 20.91642 | 113.26411 | 34031 ft | 452 kts | 252° |
| 2026-05-05 00:18 | 20.89558 | 113.20034 | 33987 ft | 454 kts | 252° |
| 2026-05-05 00:18 | 20.87473 | 113.13668 | 33998 ft | 454 kts | 252° |
| 2026-05-05 00:19 | 20.85381 | 113.07289 | 33990 ft | 454 kts | 252° |
| 2026-05-05 00:19 | 20.83287 | 113.00910 | 34002 ft | 455 kts | 252° |
| 2026-05-05 00:20 | 20.81186 | 112.94515 | 34007 ft | 459 kts | 252° |
| 2026-05-05 00:20 | 20.79059 | 112.88057 | 33982 ft | 461 kts | 252° |
| 2026-05-05 00:21 | 20.76928 | 112.81594 | 34006 ft | 461 kts | 252° |
| 2026-05-05 00:21 | 20.74811 | 112.75183 | 34003 ft | 461 kts | 252° |
| 2026-05-05 00:22 | 20.72679 | 112.68734 | 34004 ft | 461 kts | 252° |
| 2026-05-05 00:22 | 20.70543 | 112.62281 | 34005 ft | 461 kts | 252° |
| 2026-05-05 00:23 | 20.68402 | 112.55826 | 34008 ft | 461 kts | 252° |
| 2026-05-05 00:23 | 20.66261 | 112.49377 | 33993 ft | 460 kts | 252° |
| 2026-05-05 00:24 | 20.64125 | 112.42953 | 34005 ft | 459 kts | 252° |
| 2026-05-05 00:24 | 20.61987 | 112.36529 | 33994 ft | 459 kts | 252° |
| 2026-05-05 00:25 | 20.59850 | 112.30117 | 34000 ft | 458 kts | 252° |
| 2026-05-05 00:25 | 20.57712 | 112.23710 | 34000 ft | 458 kts | 252° |
| 2026-05-05 00:26 | 20.56028 | 112.17237 | 33998 ft | 451 kts | 268° |
| 2026-05-05 00:26 | 20.56210 | 112.13893 | 34019 ft | 452 kts | 279° |
| 2026-05-05 00:26 | 20.56953 | 112.10626 | 34005 ft | 455 kts | 288° |
| 2026-05-05 00:27 | 20.59670 | 112.04481 | 34003 ft | 459 kts | 295° |
| 2026-05-05 00:27 | 20.62525 | 111.98374 | 34005 ft | 461 kts | 294° |
| 2026-05-05 00:28 | 20.65326 | 111.92238 | 34003 ft | 463 kts | 294° |
| 2026-05-05 00:28 | 20.68118 | 111.86052 | 34005 ft | 463 kts | 294° |
| 2026-05-05 00:29 | 20.70905 | 111.79856 | 34005 ft | 462 kts | 294° |
| 2026-05-05 00:29 | 20.73687 | 111.73669 | 34008 ft | 461 kts | 294° |
| 2026-05-05 00:30 | 20.76461 | 111.67494 | 33999 ft | 460 kts | 294° |
| 2026-05-05 00:30 | 20.79222 | 111.61338 | 34013 ft | 459 kts | 294° |
| 2026-05-05 00:31 | 20.81969 | 111.55197 | 33994 ft | 455 kts | 292° |
| 2026-05-05 00:31 | 20.82951 | 111.52025 | 33998 ft | 451 kts | 278° |
| 2026-05-05 00:31 | 20.83141 | 111.48718 | 34023 ft | 451 kts | 268° |
| 2026-05-05 00:32 | 20.81846 | 111.42166 | 34020 ft | 457 kts | 251° |
| 2026-05-05 00:32 | 20.79572 | 111.35728 | 34009 ft | 460 kts | 252° |
| 2026-05-05 00:33 | 20.77380 | 111.29334 | 34010 ft | 462 kts | 252° |
| 2026-05-05 00:33 | 20.75189 | 111.22829 | 34023 ft | 463 kts | 252° |
| 2026-05-05 00:34 | 20.73013 | 111.16348 | 34005 ft | 463 kts | 252° |
| 2026-05-05 00:34 | 20.70849 | 111.09914 | 33992 ft | 463 kts | 252° |
| 2026-05-05 00:35 | 20.68674 | 111.03461 | 33998 ft | 461 kts | 252° |
| 2026-05-05 00:35 | 20.66502 | 110.97022 | 34015 ft | 461 kts | 252° |
| 2026-05-05 00:36 | 20.64331 | 110.90599 | 34018 ft | 460 kts | 252° |
| 2026-05-05 00:36 | 20.62172 | 110.84177 | 33997 ft | 459 kts | 252° |
| 2026-05-05 00:37 | 20.60020 | 110.77761 | 33991 ft | 459 kts | 252° |
| 2026-05-05 00:37 | 20.57862 | 110.71338 | 33997 ft | 459 kts | 252° |
| 2026-05-05 00:38 | 20.55704 | 110.64925 | 34017 ft | 460 kts | 252° |
| 2026-05-05 00:38 | 20.53535 | 110.58490 | 34012 ft | 461 kts | 252° |
| 2026-05-05 00:39 | 20.51236 | 110.52111 | 34001 ft | 463 kts | 246° |
| 2026-05-05 00:39 | 20.47946 | 110.46166 | 34006 ft | 467 kts | 238° |
| 2026-05-05 00:40 | 20.43851 | 110.40740 | 34014 ft | 471 kts | 234° |
| 2026-05-05 00:40 | 20.39702 | 110.35337 | 34010 ft | 472 kts | 234° |
| 2026-05-05 00:41 | 20.35567 | 110.29907 | 34010 ft | 472 kts | 234° |
| 2026-05-05 00:41 | 20.31422 | 110.24470 | 33995 ft | 472 kts | 234° |
| 2026-05-05 00:42 | 20.27294 | 110.19026 | 34011 ft | 472 kts | 234° |
| 2026-05-05 00:42 | 20.23234 | 110.13596 | 34003 ft | 471 kts | 234° |
| 2026-05-05 00:43 | 20.19152 | 110.08138 | 34003 ft | 471 kts | 234° |
| 2026-05-05 00:43 | 20.15060 | 110.02682 | 34008 ft | 471 kts | 234° |
| 2026-05-05 00:44 | 20.10934 | 109.97190 | 34007 ft | 472 kts | 234° |
| 2026-05-05 00:44 | 20.06833 | 109.91737 | 34008 ft | 472 kts | 234° |
| 2026-05-05 00:45 | 20.02730 | 109.86287 | 34007 ft | 472 kts | 234° |
| 2026-05-05 00:45 | 19.98646 | 109.80867 | 33995 ft | 473 kts | 234° |
| 2026-05-05 00:46 | 19.94531 | 109.75411 | 33997 ft | 473 kts | 234° |
| 2026-05-05 00:46 | 19.90416 | 109.69959 | 34005 ft | 473 kts | 234° |
| 2026-05-05 00:47 | 19.86295 | 109.64504 | 34001 ft | 473 kts | 234° |
| 2026-05-05 00:47 | 19.82167 | 109.59046 | 33999 ft | 473 kts | 234° |
| 2026-05-05 00:48 | 19.78046 | 109.53602 | 33999 ft | 474 kts | 234° |
| 2026-05-05 00:48 | 19.73912 | 109.48145 | 33990 ft | 474 kts | 234° |
| 2026-05-05 00:49 | 19.69778 | 109.42695 | 33990 ft | 474 kts | 235° |
| 2026-05-05 00:49 | 19.65644 | 109.37247 | 33995 ft | 474 kts | 235° |
| 2026-05-05 00:50 | 19.61509 | 109.31803 | 33993 ft | 474 kts | 234° |
| 2026-05-05 00:50 | 19.57401 | 109.26399 | 33996 ft | 473 kts | 234° |
| 2026-05-05 00:51 | 19.53265 | 109.20963 | 33997 ft | 473 kts | 234° |
| 2026-05-05 00:51 | 19.49113 | 109.15546 | 33994 ft | 474 kts | 234° |
| 2026-05-05 00:52 | 19.45612 | 109.11031 | 33993 ft | 474 kts | 234° |
| 2026-05-05 00:52 | 19.41425 | 109.05635 | 33984 ft | 474 kts | 234° |
| 2026-05-05 00:53 | 19.37251 | 109.00250 | 33994 ft | 473 kts | 234° |
| 2026-05-05 00:53 | 19.33076 | 108.94863 | 33991 ft | 473 kts | 234° |
| 2026-05-05 00:54 | 19.28898 | 108.89478 | 33988 ft | 473 kts | 234° |
| 2026-05-05 00:54 | 19.24712 | 108.84088 | 33989 ft | 473 kts | 234° |
| 2026-05-05 00:55 | 19.20537 | 108.78702 | 33990 ft | 473 kts | 234° |
| 2026-05-05 00:55 | 19.16368 | 108.73319 | 33987 ft | 473 kts | 234° |
| 2026-05-05 00:56 | 19.12195 | 108.67935 | 33978 ft | 473 kts | 234° |
| 2026-05-05 00:56 | 19.08046 | 108.62589 | 33985 ft | 474 kts | 234° |
| 2026-05-05 00:57 | 19.03833 | 108.57167 | 33982 ft | 474 kts | 234° |
| 2026-05-05 00:57 | 18.99645 | 108.51780 | 33987 ft | 475 kts | 234° |
| 2026-05-05 00:58 | 18.95446 | 108.46384 | 33988 ft | 475 kts | 234° |
| 2026-05-05 00:58 | 18.91251 | 108.40998 | 33984 ft | 475 kts | 234° |
| 2026-05-05 00:59 | 18.87077 | 108.35645 | 33980 ft | 475 kts | 234° |
| 2026-05-05 00:59 | 18.82881 | 108.30266 | 33977 ft | 475 kts | 234° |
| 2026-05-05 01:00 | 18.78683 | 108.24889 | 33979 ft | 476 kts | 234° |
| 2026-05-05 01:00 | 18.74465 | 108.19492 | 33980 ft | 478 kts | 234° |
| 2026-05-05 01:01 | 18.70229 | 108.14077 | 33985 ft | 478 kts | 234° |
| 2026-05-05 01:01 | 18.65988 | 108.08661 | 34003 ft | 479 kts | 234° |
| 2026-05-05 01:02 | 18.61750 | 108.03252 | 33983 ft | 479 kts | 234° |
| 2026-05-05 01:02 | 18.57498 | 107.97830 | 33970 ft | 479 kts | 234° |
| 2026-05-05 01:03 | 18.53250 | 107.92418 | 33994 ft | 480 kts | 234° |
| 2026-05-05 01:03 | 18.48985 | 107.86988 | 33988 ft | 481 kts | 234° |
| 2026-05-05 01:04 | 18.44716 | 107.81558 | 33994 ft | 482 kts | 234° |
| 2026-05-05 01:04 | 18.38301 | 107.73407 | 33995 ft | 482 kts | 234° |
| 2026-05-05 01:05 | 18.36403 | 107.70617 | 33973 ft | 471 kts | 246° |
| 2026-05-05 01:05 | 18.35335 | 107.67349 | 34002 ft | 465 kts | 262° |
| 2026-05-05 01:05 | 18.35101 | 107.63975 | 33988 ft | 463 kts | 274° |
| 2026-05-05 01:05 | 18.35531 | 107.60620 | 33994 ft | 463 kts | 283° |
| 2026-05-05 01:06 | 18.36959 | 107.53994 | 33993 ft | 465 kts | 283° |
| 2026-05-05 01:06 | 18.38336 | 107.47334 | 33997 ft | 467 kts | 282° |
| 2026-05-05 01:07 | 18.39667 | 107.40675 | 33993 ft | 468 kts | 282° |
| 2026-05-05 01:07 | 18.40991 | 107.33963 | 33997 ft | 469 kts | 282° |
| 2026-05-05 01:08 | 18.42315 | 107.27241 | 33996 ft | 468 kts | 282° |
| 2026-05-05 01:08 | 18.43635 | 107.20528 | 33995 ft | 468 kts | 282° |
| 2026-05-05 01:09 | 18.44949 | 107.13838 | 33993 ft | 467 kts | 282° |
| 2026-05-05 01:09 | 18.46263 | 107.07139 | 33995 ft | 466 kts | 282° |
| 2026-05-05 01:10 | 18.47569 | 107.00450 | 34000 ft | 466 kts | 282° |
| 2026-05-05 01:10 | 18.48866 | 106.93776 | 33998 ft | 465 kts | 282° |
| 2026-05-05 01:11 | 18.50161 | 106.87092 | 33999 ft | 465 kts | 282° |
| 2026-05-05 01:11 | 18.51452 | 106.80423 | 33997 ft | 465 kts | 282° |
| 2026-05-05 01:12 | 18.52743 | 106.73738 | 34034 ft | 467 kts | 282° |
| 2026-05-05 01:12 | 18.53390 | 106.70384 | 34276 ft | 468 kts | 282° |
| 2026-05-05 01:12 | 18.54037 | 106.67029 | 34638 ft | 466 kts | 282° |
| 2026-05-05 01:13 | 18.54680 | 106.63690 | 35035 ft | 463 kts | 282° |
| 2026-05-05 01:13 | 18.55317 | 106.60375 | 35436 ft | 459 kts | 282° |
| 2026-05-05 01:13 | 18.55950 | 106.57093 | 35812 ft | 457 kts | 282° |
| 2026-05-05 01:13 | 18.56594 | 106.53807 | 36033 ft | 458 kts | 282° |
| 2026-05-05 01:14 | 18.57892 | 106.47227 | 36000 ft | 459 kts | 282° |
| 2026-05-05 01:14 | 18.59181 | 106.40669 | 36002 ft | 455 kts | 282° |
| 2026-05-05 01:15 | 18.60449 | 106.34194 | 36002 ft | 453 kts | 282° |
| 2026-05-05 01:15 | 18.61720 | 106.27687 | 36007 ft | 453 kts | 282° |
| 2026-05-05 01:16 | 18.62988 | 106.21179 | 36007 ft | 453 kts | 282° |
| 2026-05-05 01:16 | 18.64256 | 106.14663 | 36015 ft | 454 kts | 282° |
| 2026-05-05 01:17 | 18.65525 | 106.08126 | 36015 ft | 455 kts | 282° |
| 2026-05-05 01:17 | 18.66780 | 106.01580 | 36014 ft | 456 kts | 282° |
| 2026-05-05 01:18 | 18.68034 | 105.95011 | 36013 ft | 457 kts | 282° |
| 2026-05-05 01:18 | 18.69290 | 105.88425 | 36017 ft | 458 kts | 281° |
| 2026-05-05 01:19 | 18.70547 | 105.81828 | 36017 ft | 459 kts | 281° |
| 2026-05-05 01:19 | 18.71801 | 105.75233 | 36019 ft | 459 kts | 281° |
| 2026-05-05 01:20 | 18.73057 | 105.68636 | 36022 ft | 459 kts | 282° |
| 2026-05-05 01:20 | 18.74927 | 105.62206 | 36025 ft | 459 kts | 290° |
| 2026-05-05 01:21 | 18.77164 | 105.55900 | 36022 ft | 459 kts | 289° |
| 2026-05-05 01:21 | 18.79339 | 105.49574 | 36028 ft | 459 kts | 289° |
| 2026-05-05 01:22 | 18.81502 | 105.43250 | 36033 ft | 459 kts | 289° |
| 2026-05-05 01:22 | 18.83669 | 105.36918 | 36026 ft | 458 kts | 289° |
| 2026-05-05 01:23 | 18.85834 | 105.30594 | 36029 ft | 458 kts | 289° |
| 2026-05-05 01:23 | 18.87998 | 105.24265 | 36029 ft | 458 kts | 289° |
| 2026-05-05 01:24 | 18.90155 | 105.17947 | 36036 ft | 458 kts | 289° |
| 2026-05-05 01:24 | 18.92315 | 105.11616 | 36037 ft | 457 kts | 289° |
| 2026-05-05 01:25 | 18.94467 | 105.05297 | 36043 ft | 457 kts | 289° |
| 2026-05-05 01:25 | 18.96607 | 104.99010 | 36043 ft | 457 kts | 289° |
| 2026-05-05 01:26 | 18.98755 | 104.92687 | 36051 ft | 457 kts | 289° |
| 2026-05-05 01:26 | 19.00900 | 104.86364 | 36050 ft | 458 kts | 289° |
| 2026-05-05 01:27 | 19.03050 | 104.80023 | 36047 ft | 458 kts | 289° |
| 2026-05-05 01:27 | 19.05197 | 104.73680 | 36050 ft | 459 kts | 289° |
| 2026-05-05 01:28 | 19.07346 | 104.67323 | 36046 ft | 459 kts | 289° |
| 2026-05-05 01:28 | 19.09489 | 104.60976 | 36041 ft | 459 kts | 289° |
| 2026-05-05 01:29 | 19.11634 | 104.54616 | 36050 ft | 458 kts | 289° |
| 2026-05-05 01:29 | 19.13771 | 104.48272 | 36054 ft | 459 kts | 289° |
| 2026-05-05 01:30 | 19.15911 | 104.41906 | 36052 ft | 459 kts | 289° |
| 2026-05-05 01:30 | 19.18050 | 104.35538 | 36059 ft | 459 kts | 289° |
| 2026-05-05 01:31 | 19.20182 | 104.29183 | 36058 ft | 459 kts | 289° |
| 2026-05-05 01:31 | 19.22313 | 104.22822 | 36046 ft | 458 kts | 289° |
| 2026-05-05 01:32 | 19.24443 | 104.16458 | 36072 ft | 458 kts | 289° |
| 2026-05-05 01:32 | 19.26554 | 104.10141 | 36053 ft | 459 kts | 289° |
| 2026-05-05 01:33 | 19.28691 | 104.03736 | 36066 ft | 459 kts | 289° |
| 2026-05-05 01:33 | 19.30802 | 103.97405 | 36056 ft | 459 kts | 289° |
| 2026-05-05 01:34 | 19.32922 | 103.91031 | 36059 ft | 459 kts | 288° |
| 2026-05-05 01:34 | 19.35018 | 103.84637 | 36051 ft | 459 kts | 288° |
| 2026-05-05 01:35 | 19.37105 | 103.78246 | 36059 ft | 460 kts | 288° |
| 2026-05-05 01:35 | 19.39197 | 103.71841 | 36056 ft | 460 kts | 288° |
| 2026-05-05 01:36 | 19.41288 | 103.65435 | 36054 ft | 460 kts | 288° |
| 2026-05-05 01:36 | 19.43385 | 103.59031 | 36056 ft | 461 kts | 289° |
| 2026-05-05 01:37 | 19.45562 | 103.52636 | 36056 ft | 461 kts | 289° |
| 2026-05-05 01:37 | 19.47754 | 103.46254 | 36055 ft | 462 kts | 289° |
| 2026-05-05 01:38 | 19.49940 | 103.39851 | 36054 ft | 462 kts | 289° |
| 2026-05-05 01:38 | 19.52119 | 103.33440 | 36053 ft | 462 kts | 289° |
| 2026-05-05 01:39 | 19.54295 | 103.27024 | 36052 ft | 462 kts | 288° |
| 2026-05-05 01:39 | 19.56097 | 103.21703 | 36057 ft | 462 kts | 289° |
| 2026-05-05 01:40 | 19.58266 | 103.15292 | 36049 ft | 462 kts | 288° |
| 2026-05-05 01:40 | 19.60437 | 103.08868 | 36043 ft | 462 kts | 288° |
| 2026-05-05 01:41 | 19.62599 | 103.02461 | 36035 ft | 462 kts | 288° |
| 2026-05-05 01:41 | 19.64765 | 102.96035 | 36038 ft | 462 kts | 288° |
| 2026-05-05 01:42 | 19.66930 | 102.89605 | 36051 ft | 462 kts | 288° |
| 2026-05-05 01:42 | 19.69088 | 102.83182 | 36041 ft | 462 kts | 288° |
| 2026-05-05 01:43 | 19.71244 | 102.76763 | 36031 ft | 461 kts | 288° |
| 2026-05-05 01:43 | 19.73390 | 102.70362 | 36031 ft | 461 kts | 288° |
| 2026-05-05 01:44 | 19.75533 | 102.63959 | 36028 ft | 460 kts | 288° |
| 2026-05-05 01:44 | 19.77675 | 102.57555 | 36030 ft | 460 kts | 288° |
| 2026-05-05 01:45 | 19.79810 | 102.51158 | 36023 ft | 460 kts | 288° |
| 2026-05-05 01:45 | 19.81936 | 102.44783 | 36021 ft | 461 kts | 288° |
| 2026-05-05 01:46 | 19.84080 | 102.38344 | 36010 ft | 462 kts | 288° |
| 2026-05-05 01:46 | 19.86220 | 102.31911 | 36008 ft | 463 kts | 288° |
| 2026-05-05 01:47 | 19.88360 | 102.25465 | 36027 ft | 464 kts | 288° |
| 2026-05-05 01:47 | 19.90519 | 102.18993 | 36004 ft | 466 kts | 289° |
| 2026-05-05 01:48 | 19.93396 | 102.12792 | 36029 ft | 469 kts | 298° |
| 2026-05-05 01:48 | 19.96698 | 102.06822 | 36029 ft | 469 kts | 298° |
| 2026-05-05 01:49 | 19.99941 | 102.00810 | 36011 ft | 470 kts | 297° |
| 2026-05-05 01:49 | 20.03183 | 101.94769 | 36031 ft | 471 kts | 297° |
| 2026-05-05 01:50 | 20.06436 | 101.88703 | 36027 ft | 472 kts | 297° |
| 2026-05-05 01:50 | 20.09689 | 101.82636 | 36035 ft | 472 kts | 297° |
| 2026-05-05 01:51 | 20.12941 | 101.76568 | 36029 ft | 472 kts | 297° |
| 2026-05-05 01:51 | 20.16184 | 101.70509 | 36032 ft | 471 kts | 297° |
| 2026-05-05 01:52 | 20.19426 | 101.64447 | 36027 ft | 470 kts | 297° |
| 2026-05-05 01:52 | 20.22659 | 101.58395 | 36038 ft | 470 kts | 297° |
| 2026-05-05 01:53 | 20.25883 | 101.52352 | 36033 ft | 470 kts | 297° |
| 2026-05-05 01:53 | 20.29106 | 101.46306 | 36039 ft | 470 kts | 297° |
| 2026-05-05 01:54 | 20.32327 | 101.40256 | 36041 ft | 469 kts | 297° |
| 2026-05-05 01:54 | 20.35549 | 101.34197 | 36039 ft | 470 kts | 297° |
| 2026-05-05 01:55 | 20.38769 | 101.28137 | 36037 ft | 470 kts | 297° |
| 2026-05-05 01:55 | 20.41996 | 101.22059 | 36041 ft | 470 kts | 297° |
| 2026-05-05 01:56 | 20.45190 | 101.16033 | 36053 ft | 471 kts | 298° |
| 2026-05-05 01:56 | 20.48416 | 101.09942 | 36046 ft | 472 kts | 298° |
| 2026-05-05 01:57 | 20.51650 | 101.03829 | 36043 ft | 473 kts | 298° |
| 2026-05-05 01:57 | 20.54883 | 100.97711 | 36049 ft | 474 kts | 298° |
| 2026-05-05 01:58 | 20.58125 | 100.91569 | 36049 ft | 475 kts | 298° |
| 2026-05-05 01:58 | 20.61361 | 100.85433 | 36052 ft | 475 kts | 298° |
| 2026-05-05 01:59 | 20.64603 | 100.79277 | 36047 ft | 475 kts | 298° |
| 2026-05-05 01:59 | 20.67839 | 100.73128 | 36049 ft | 475 kts | 298° |
| 2026-05-05 02:00 | 20.71076 | 100.66968 | 36048 ft | 475 kts | 297° |
| 2026-05-05 02:00 | 20.74306 | 100.60815 | 36051 ft | 474 kts | 297° |
| 2026-05-05 02:01 | 20.77525 | 100.54674 | 36048 ft | 474 kts | 298° |
| 2026-05-05 02:01 | 20.80717 | 100.48512 | 36045 ft | 473 kts | 295° |
| 2026-05-05 02:02 | 20.83076 | 100.41977 | 36055 ft | 470 kts | 284° |
| 2026-05-05 02:02 | 20.84817 | 100.35248 | 36046 ft | 470 kts | 285° |
| 2026-05-05 02:03 | 20.86624 | 100.28545 | 36050 ft | 469 kts | 285° |
| 2026-05-05 02:03 | 20.88443 | 100.21849 | 36048 ft | 469 kts | 285° |
| 2026-05-05 02:04 | 20.90257 | 100.15156 | 36055 ft | 468 kts | 285° |
| 2026-05-05 02:04 | 20.92066 | 100.08458 | 36050 ft | 468 kts | 285° |
| 2026-05-05 02:05 | 20.93871 | 100.01761 | 36058 ft | 468 kts | 285° |
| 2026-05-05 02:05 | 20.95673 | 99.95063 | 36056 ft | 468 kts | 285° |
| 2026-05-05 02:06 | 20.97473 | 99.88363 | 36062 ft | 469 kts | 285° |
| 2026-05-05 02:06 | 20.99258 | 99.81705 | 36075 ft | 468 kts | 285° |
| 2026-05-05 02:07 | 21.01052 | 99.75005 | 36060 ft | 468 kts | 285° |
| 2026-05-05 02:07 | 21.02840 | 99.68311 | 36064 ft | 468 kts | 285° |
| 2026-05-05 02:08 | 21.04626 | 99.61616 | 36067 ft | 467 kts | 285° |
| 2026-05-05 02:08 | 21.06406 | 99.54934 | 36063 ft | 467 kts | 285° |
| 2026-05-05 02:09 | 21.08183 | 99.48252 | 36065 ft | 467 kts | 285° |
| 2026-05-05 02:09 | 21.09956 | 99.41572 | 36058 ft | 467 kts | 285° |
| 2026-05-05 02:10 | 21.11730 | 99.34875 | 36051 ft | 467 kts | 285° |
| 2026-05-05 02:10 | 21.13498 | 99.28191 | 36047 ft | 467 kts | 285° |
| 2026-05-05 02:11 | 21.15268 | 99.21490 | 36043 ft | 467 kts | 285° |
| 2026-05-05 02:11 | 21.17031 | 99.14800 | 36046 ft | 467 kts | 285° |
| 2026-05-05 02:12 | 21.19677 | 99.04742 | 36033 ft | 467 kts | 285° |
| 2026-05-05 02:13 | 21.21422 | 98.98090 | 36025 ft | 467 kts | 285° |
| 2026-05-05 02:13 | 21.23178 | 98.91389 | 36018 ft | 467 kts | 285° |
| 2026-05-05 02:14 | 21.24939 | 98.84658 | 36022 ft | 466 kts | 285° |
| 2026-05-05 02:14 | 21.26673 | 98.78015 | 36006 ft | 466 kts | 285° |
| 2026-05-05 02:15 | 21.28417 | 98.71325 | 36005 ft | 465 kts | 285° |
| 2026-05-05 02:15 | 21.30153 | 98.64651 | 36007 ft | 465 kts | 285° |
| 2026-05-05 02:16 | 21.31885 | 98.57984 | 36012 ft | 464 kts | 285° |
| 2026-05-05 02:16 | 21.33616 | 98.51307 | 36005 ft | 464 kts | 285° |
| 2026-05-05 02:17 | 21.35341 | 98.44639 | 36004 ft | 464 kts | 285° |
| 2026-05-05 02:17 | 21.37063 | 98.37973 | 35999 ft | 464 kts | 285° |
| 2026-05-05 02:18 | 21.38783 | 98.31306 | 36006 ft | 464 kts | 285° |
| 2026-05-05 02:18 | 21.40501 | 98.24635 | 36005 ft | 464 kts | 285° |
| 2026-05-05 02:19 | 21.42203 | 98.18010 | 36008 ft | 464 kts | 284° |
| 2026-05-05 02:19 | 21.43915 | 98.11337 | 36008 ft | 464 kts | 284° |
| 2026-05-05 02:20 | 21.45623 | 98.04665 | 35994 ft | 464 kts | 284° |
| 2026-05-05 02:20 | 21.47329 | 97.97992 | 36017 ft | 463 kts | 284° |
| 2026-05-05 02:21 | 21.49032 | 97.91318 | 36004 ft | 464 kts | 284° |
| 2026-05-05 02:21 | 21.50736 | 97.84630 | 36012 ft | 464 kts | 284° |
| 2026-05-05 02:22 | 21.52432 | 97.77958 | 36006 ft | 464 kts | 284° |
| 2026-05-05 02:22 | 21.54130 | 97.71269 | 36003 ft | 464 kts | 284° |
| 2026-05-05 02:23 | 21.55824 | 97.64580 | 36009 ft | 464 kts | 284° |
| 2026-05-05 02:23 | 21.57516 | 97.57890 | 35990 ft | 464 kts | 284° |
| 2026-05-05 02:24 | 21.59204 | 97.51201 | 35990 ft | 464 kts | 284° |
| 2026-05-05 02:24 | 21.60890 | 97.44510 | 35991 ft | 464 kts | 284° |
| 2026-05-05 02:25 | 21.62573 | 97.37821 | 35991 ft | 464 kts | 284° |
| 2026-05-05 02:25 | 21.64255 | 97.31120 | 36002 ft | 464 kts | 284° |
| 2026-05-05 02:26 | 21.65934 | 97.24419 | 35984 ft | 464 kts | 284° |
| 2026-05-05 02:26 | 21.67610 | 97.17717 | 35981 ft | 464 kts | 284° |
| 2026-05-05 02:27 | 21.69270 | 97.11068 | 35973 ft | 464 kts | 284° |
| 2026-05-05 02:27 | 21.70938 | 97.04375 | 35971 ft | 463 kts | 284° |
| 2026-05-05 02:28 | 21.72602 | 96.97686 | 35965 ft | 462 kts | 284° |
| 2026-05-05 02:28 | 21.73992 | 96.92088 | 35966 ft | 462 kts | 284° |
| 2026-05-05 02:29 | 21.75638 | 96.85449 | 35976 ft | 462 kts | 284° |
| 2026-05-05 02:29 | 21.77291 | 96.78771 | 35966 ft | 462 kts | 284° |
| 2026-05-05 02:30 | 21.78945 | 96.72072 | 35962 ft | 463 kts | 284° |
| 2026-05-05 02:30 | 21.80596 | 96.65374 | 35960 ft | 463 kts | 284° |
| 2026-05-05 02:31 | 21.82245 | 96.58672 | 35961 ft | 463 kts | 284° |
| 2026-05-05 02:31 | 21.83892 | 96.51968 | 35944 ft | 464 kts | 284° |
| 2026-05-05 02:32 | 21.85538 | 96.45252 | 35949 ft | 464 kts | 283° |
| 2026-05-05 02:32 | 21.87181 | 96.38536 | 35922 ft | 464 kts | 283° |
| 2026-05-05 02:33 | 21.88822 | 96.31818 | 35925 ft | 464 kts | 283° |
| 2026-05-05 02:33 | 21.90455 | 96.25119 | 35923 ft | 463 kts | 283° |
| 2026-05-05 02:34 | 21.92087 | 96.18411 | 35912 ft | 462 kts | 283° |
| 2026-05-05 02:34 | 21.93546 | 96.11738 | 35906 ft | 460 kts | 278° |
| 2026-05-05 02:35 | 21.94125 | 96.04887 | 35900 ft | 459 kts | 274° |
| 2026-05-05 02:35 | 21.94697 | 95.98035 | 35900 ft | 459 kts | 275° |
| 2026-05-05 02:36 | 21.95298 | 95.91177 | 35899 ft | 460 kts | 275° |
| 2026-05-05 02:36 | 21.95896 | 95.84316 | 35905 ft | 460 kts | 275° |
| 2026-05-05 02:37 | 21.96489 | 95.77451 | 35907 ft | 461 kts | 275° |
| 2026-05-05 02:37 | 21.97077 | 95.70583 | 35912 ft | 461 kts | 275° |
| 2026-05-05 02:38 | 21.97663 | 95.63697 | 35905 ft | 461 kts | 274° |
| 2026-05-05 02:38 | 21.98246 | 95.56820 | 35906 ft | 461 kts | 274° |
| 2026-05-05 02:39 | 21.98826 | 95.49940 | 35910 ft | 461 kts | 274° |
| 2026-05-05 02:39 | 21.99403 | 95.43062 | 35913 ft | 461 kts | 274° |
| 2026-05-05 02:40 | 21.99978 | 95.36178 | 35912 ft | 461 kts | 274° |
| 2026-05-05 02:40 | 22.00546 | 95.29346 | 35920 ft | 461 kts | 274° |
| 2026-05-05 02:41 | 22.01117 | 95.22429 | 35921 ft | 461 kts | 274° |
| 2026-05-05 02:41 | 22.01679 | 95.15590 | 35921 ft | 461 kts | 274° |
| 2026-05-05 02:42 | 22.02245 | 95.08672 | 35923 ft | 461 kts | 274° |
| 2026-05-05 02:42 | 22.02804 | 95.01798 | 35925 ft | 461 kts | 274° |
| 2026-05-05 02:43 | 22.03361 | 94.94917 | 35933 ft | 461 kts | 274° |
| 2026-05-05 02:43 | 22.03912 | 94.88075 | 35926 ft | 461 kts | 274° |
| 2026-05-05 02:44 | 22.04464 | 94.81186 | 35935 ft | 461 kts | 274° |
| 2026-05-05 02:44 | 22.05012 | 94.74309 | 35936 ft | 461 kts | 274° |
| 2026-05-05 02:45 | 22.05558 | 94.67415 | 35953 ft | 461 kts | 274° |
| 2026-05-05 02:45 | 22.06101 | 94.60526 | 35950 ft | 462 kts | 274° |
| 2026-05-05 02:46 | 22.06643 | 94.53630 | 35966 ft | 462 kts | 274° |
| 2026-05-05 02:46 | 22.07180 | 94.46731 | 35960 ft | 462 kts | 274° |
| 2026-05-05 02:47 | 22.07714 | 94.39843 | 35973 ft | 461 kts | 274° |
| 2026-05-05 02:47 | 22.08246 | 94.32947 | 35965 ft | 461 kts | 274° |
| 2026-05-05 02:48 | 22.08775 | 94.26052 | 35972 ft | 461 kts | 274° |
| 2026-05-05 02:48 | 22.09297 | 94.19203 | 35970 ft | 461 kts | 274° |
| 2026-05-05 02:49 | 22.09820 | 94.12312 | 35973 ft | 461 kts | 274° |
| 2026-05-05 02:49 | 22.10339 | 94.05428 | 35981 ft | 461 kts | 274° |
| 2026-05-05 02:50 | 22.10856 | 93.98533 | 35983 ft | 461 kts | 274° |
| 2026-05-05 02:50 | 22.11370 | 93.91644 | 36005 ft | 461 kts | 274° |
| 2026-05-05 02:51 | 22.11881 | 93.84757 | 35999 ft | 461 kts | 274° |
| 2026-05-05 02:51 | 22.12389 | 93.77858 | 36025 ft | 461 kts | 274° |
| 2026-05-05 02:52 | 22.12897 | 93.70945 | 36017 ft | 462 kts | 274° |
| 2026-05-05 02:52 | 22.13399 | 93.64051 | 36032 ft | 462 kts | 274° |
| 2026-05-05 02:53 | 22.13899 | 93.57127 | 36012 ft | 463 kts | 274° |
| 2026-05-05 02:53 | 22.14398 | 93.50206 | 36025 ft | 463 kts | 274° |
| 2026-05-05 02:54 | 22.14893 | 93.43291 | 36028 ft | 463 kts | 274° |
| 2026-05-05 02:54 | 22.15386 | 93.36383 | 36038 ft | 462 kts | 274° |
| 2026-05-05 02:55 | 22.15874 | 93.29479 | 36030 ft | 462 kts | 274° |
| 2026-05-05 02:55 | 22.16360 | 93.22560 | 36035 ft | 462 kts | 274° |
| 2026-05-05 02:56 | 22.16843 | 93.15653 | 36005 ft | 462 kts | 274° |
| 2026-05-05 02:56 | 22.17322 | 93.08761 | 36020 ft | 461 kts | 273° |
| 2026-05-05 02:57 | 22.17799 | 93.01853 | 35990 ft | 461 kts | 273° |
| 2026-05-05 02:57 | 22.18270 | 92.94995 | 35996 ft | 461 kts | 273° |
| 2026-05-05 02:58 | 22.18741 | 92.88083 | 35974 ft | 462 kts | 273° |
| 2026-05-05 02:58 | 22.19209 | 92.81175 | 35979 ft | 462 kts | 273° |
| 2026-05-05 02:59 | 22.19674 | 92.74258 | 35966 ft | 462 kts | 273° |
| 2026-05-05 02:59 | 22.20138 | 92.67344 | 35969 ft | 462 kts | 273° |
| 2026-05-05 03:00 | 22.20588 | 92.60417 | 35963 ft | 462 kts | 273° |
| 2026-05-05 03:00 | 22.21012 | 92.53502 | 35962 ft | 462 kts | 273° |
| 2026-05-05 03:01 | 22.21435 | 92.46579 | 35959 ft | 462 kts | 273° |
| 2026-05-05 03:01 | 22.21857 | 92.39657 | 35948 ft | 462 kts | 273° |
| 2026-05-05 03:02 | 22.22278 | 92.32744 | 35949 ft | 462 kts | 273° |
| 2026-05-05 03:02 | 22.22701 | 92.25814 | 35944 ft | 462 kts | 273° |
| 2026-05-05 03:03 | 22.23198 | 92.18904 | 35942 ft | 462 kts | 274° |
| 2026-05-05 03:03 | 22.23715 | 92.11991 | 35940 ft | 462 kts | 274° |
| 2026-05-05 03:04 | 22.24218 | 92.05085 | 35938 ft | 462 kts | 274° |
| 2026-05-05 03:04 | 22.24712 | 91.98172 | 35933 ft | 462 kts | 274° |
| 2026-05-05 03:05 | 22.25202 | 91.91268 | 35935 ft | 462 kts | 273° |
| 2026-05-05 03:05 | 22.25690 | 91.84374 | 35943 ft | 461 kts | 273° |
| 2026-05-05 03:06 | 22.26305 | 91.77478 | 35940 ft | 461 kts | 276° |
| 2026-05-05 03:06 | 22.27149 | 91.70670 | 35938 ft | 460 kts | 276° |
| 2026-05-05 03:07 | 22.27978 | 91.63826 | 35940 ft | 460 kts | 276° |
| 2026-05-05 03:07 | 22.28771 | 91.56933 | 35936 ft | 459 kts | 276° |
| 2026-05-05 03:08 | 22.29546 | 91.50084 | 35949 ft | 459 kts | 276° |
| 2026-05-05 03:08 | 22.30320 | 91.43247 | 35935 ft | 458 kts | 276° |
| 2026-05-05 03:09 | 22.31095 | 91.36418 | 35940 ft | 458 kts | 276° |
| 2026-05-05 03:09 | 22.31927 | 91.29652 | 35933 ft | 457 kts | 276° |
| 2026-05-05 03:10 | 22.32784 | 91.22847 | 35934 ft | 457 kts | 276° |
| 2026-05-05 03:10 | 22.33629 | 91.16060 | 35930 ft | 457 kts | 276° |
| 2026-05-05 03:11 | 22.34469 | 91.09249 | 35942 ft | 457 kts | 276° |
| 2026-05-05 03:11 | 22.35301 | 91.02457 | 35935 ft | 457 kts | 276° |
| 2026-05-05 03:12 | 22.36132 | 90.95645 | 35935 ft | 457 kts | 276° |
| 2026-05-05 03:12 | 22.36958 | 90.88848 | 35936 ft | 457 kts | 276° |
| 2026-05-05 03:13 | 22.37783 | 90.82043 | 35939 ft | 457 kts | 276° |
| 2026-05-05 03:13 | 22.38606 | 90.75231 | 35936 ft | 457 kts | 276° |
| 2026-05-05 03:14 | 22.39425 | 90.68422 | 35936 ft | 457 kts | 276° |
| 2026-05-05 03:14 | 22.40242 | 90.61613 | 35940 ft | 457 kts | 276° |
| 2026-05-05 03:15 | 22.41056 | 90.54802 | 35936 ft | 457 kts | 275° |
| 2026-05-05 03:15 | 22.41867 | 90.47991 | 35931 ft | 457 kts | 275° |
| 2026-05-05 03:16 | 22.42674 | 90.41184 | 35933 ft | 457 kts | 275° |
| 2026-05-05 03:16 | 22.43478 | 90.34380 | 35936 ft | 457 kts | 275° |
| 2026-05-05 03:17 | 22.44144 | 90.28726 | 35936 ft | 456 kts | 275° |
| 2026-05-05 03:17 | 22.44943 | 90.21923 | 35930 ft | 456 kts | 275° |
| 2026-05-05 03:18 | 22.45739 | 90.15113 | 35928 ft | 456 kts | 275° |
| 2026-05-05 03:18 | 22.46530 | 90.08324 | 35924 ft | 455 kts | 275° |
| 2026-05-05 03:19 | 22.47712 | 89.98138 | 35925 ft | 455 kts | 275° |
| 2026-05-05 03:19 | 22.48494 | 89.91358 | 35918 ft | 454 kts | 275° |
| 2026-05-05 03:20 | 22.49274 | 89.84583 | 35918 ft | 454 kts | 275° |
| 2026-05-05 03:20 | 22.50050 | 89.77807 | 35921 ft | 454 kts | 275° |
| 2026-05-05 03:21 | 22.50823 | 89.71039 | 35919 ft | 454 kts | 275° |
| 2026-05-05 03:21 | 22.51591 | 89.64277 | 35919 ft | 454 kts | 275° |
| 2026-05-05 03:22 | 22.52359 | 89.57502 | 35920 ft | 454 kts | 275° |
| 2026-05-05 03:22 | 22.53120 | 89.50763 | 35916 ft | 454 kts | 275° |
| 2026-05-05 03:23 | 22.53882 | 89.43985 | 35913 ft | 454 kts | 275° |
| 2026-05-05 03:23 | 22.54641 | 89.37205 | 35911 ft | 454 kts | 275° |
| 2026-05-05 03:24 | 22.55398 | 89.30417 | 35913 ft | 454 kts | 275° |
| 2026-05-05 03:24 | 22.56152 | 89.23631 | 35912 ft | 454 kts | 275° |
| 2026-05-05 03:25 | 22.56904 | 89.16842 | 35909 ft | 455 kts | 274° |
| 2026-05-05 03:25 | 22.57653 | 89.10049 | 35912 ft | 455 kts | 274° |
| 2026-05-05 03:26 | 22.58400 | 89.03244 | 35910 ft | 455 kts | 274° |
| 2026-05-05 03:26 | 22.59146 | 88.96433 | 35913 ft | 456 kts | 274° |
| 2026-05-05 03:27 | 22.60124 | 88.89658 | 35919 ft | 457 kts | 278° |
| 2026-05-05 03:27 | 22.61295 | 88.82890 | 35921 ft | 457 kts | 278° |
| 2026-05-05 03:28 | 22.62447 | 88.76124 | 35918 ft | 458 kts | 277° |
| 2026-05-05 03:28 | 22.63590 | 88.69342 | 35927 ft | 458 kts | 277° |
| 2026-05-05 03:29 | 22.64729 | 88.62565 | 35935 ft | 458 kts | 277° |
| 2026-05-05 03:29 | 22.65867 | 88.55774 | 35952 ft | 458 kts | 277° |
| 2026-05-05 03:30 | 22.67003 | 88.48985 | 35937 ft | 458 kts | 277° |
| 2026-05-05 03:30 | 22.67973 | 88.42177 | 35940 ft | 456 kts | 272° |
| 2026-05-05 03:31 | 22.68393 | 88.35335 | 35943 ft | 455 kts | 271° |
| 2026-05-05 03:31 | 22.68800 | 88.28497 | 35934 ft | 455 kts | 271° |
| 2026-05-05 03:32 | 22.69231 | 88.21675 | 35934 ft | 454 kts | 271° |
| 2026-05-05 03:32 | 22.69674 | 88.14849 | 35931 ft | 454 kts | 271° |
| 2026-05-05 03:33 | 22.70117 | 88.08037 | 35925 ft | 454 kts | 271° |
| 2026-05-05 03:33 | 22.70558 | 88.01208 | 35928 ft | 454 kts | 271° |
| 2026-05-05 03:34 | 22.70994 | 87.94396 | 35927 ft | 454 kts | 271° |
| 2026-05-05 03:34 | 22.71429 | 87.87566 | 35926 ft | 454 kts | 271° |
| 2026-05-05 03:35 | 22.71859 | 87.80752 | 35926 ft | 454 kts | 271° |
| 2026-05-05 03:35 | 22.72284 | 87.73973 | 35926 ft | 454 kts | 271° |
| 2026-05-05 03:36 | 22.72709 | 87.67149 | 35926 ft | 454 kts | 271° |
| 2026-05-05 03:36 | 22.73131 | 87.60319 | 35927 ft | 455 kts | 271° |
| 2026-05-05 03:37 | 22.73551 | 87.53487 | 35925 ft | 455 kts | 271° |
| 2026-05-05 03:37 | 22.73969 | 87.46639 | 35927 ft | 455 kts | 271° |
| 2026-05-05 03:38 | 22.74383 | 87.39802 | 35925 ft | 456 kts | 271° |
| 2026-05-05 03:38 | 22.74795 | 87.32953 | 35926 ft | 456 kts | 271° |
| 2026-05-05 03:39 | 22.75204 | 87.26086 | 35927 ft | 456 kts | 271° |
| 2026-05-05 03:39 | 22.75611 | 87.19223 | 35930 ft | 456 kts | 271° |
| 2026-05-05 03:40 | 22.76012 | 87.12411 | 35929 ft | 457 kts | 271° |
| 2026-05-05 03:40 | 22.76416 | 87.05503 | 35938 ft | 457 kts | 271° |
| 2026-05-05 03:41 | 22.76812 | 86.98673 | 35937 ft | 457 kts | 271° |
| 2026-05-05 03:41 | 22.77207 | 86.91810 | 35946 ft | 457 kts | 271° |
| 2026-05-05 03:42 | 22.77599 | 86.84948 | 35940 ft | 456 kts | 271° |
| 2026-05-05 03:42 | 22.77988 | 86.78089 | 35955 ft | 456 kts | 271° |
| 2026-05-05 03:43 | 22.78374 | 86.71219 | 35953 ft | 456 kts | 271° |
| 2026-05-05 03:43 | 22.78756 | 86.64380 | 35953 ft | 455 kts | 271° |
| 2026-05-05 03:44 | 22.79136 | 86.57519 | 35966 ft | 455 kts | 271° |
| 2026-05-05 03:44 | 22.79513 | 86.50676 | 35969 ft | 455 kts | 271° |
| 2026-05-05 03:45 | 22.79885 | 86.43840 | 35964 ft | 455 kts | 271° |
| 2026-05-05 03:45 | 22.80256 | 86.36998 | 35974 ft | 454 kts | 271° |
| 2026-05-05 03:46 | 22.80623 | 86.30168 | 35976 ft | 454 kts | 271° |
| 2026-05-05 03:46 | 22.80984 | 86.23377 | 35941 ft | 455 kts | 271° |
| 2026-05-05 03:47 | 22.81352 | 86.16478 | 35954 ft | 457 kts | 271° |
| 2026-05-05 03:47 | 22.81884 | 86.09612 | 35937 ft | 457 kts | 273° |
| 2026-05-05 03:48 | 22.82487 | 86.02827 | 35937 ft | 453 kts | 273° |
| 2026-05-05 03:48 | 22.83073 | 85.96024 | 35952 ft | 448 kts | 272° |
| 2026-05-05 03:49 | 22.83628 | 85.89309 | 35979 ft | 448 kts | 272° |
| 2026-05-05 03:49 | 22.84176 | 85.82562 | 35969 ft | 450 kts | 272° |
| 2026-05-05 03:50 | 22.84722 | 85.75819 | 35986 ft | 449 kts | 272° |
| 2026-05-05 03:50 | 22.85267 | 85.69058 | 36016 ft | 453 kts | 272° |
| 2026-05-05 03:51 | 22.85811 | 85.62292 | 35999 ft | 453 kts | 272° |
| 2026-05-05 03:51 | 22.86356 | 85.55501 | 36007 ft | 451 kts | 272° |
| 2026-05-05 03:52 | 22.86893 | 85.48744 | 36005 ft | 450 kts | 272° |
| 2026-05-05 03:52 | 22.87427 | 85.41986 | 36029 ft | 449 kts | 272° |
| 2026-05-05 03:53 | 22.87956 | 85.35247 | 36029 ft | 449 kts | 272° |
| 2026-05-05 03:53 | 22.88484 | 85.28498 | 36008 ft | 448 kts | 272° |
| 2026-05-05 03:54 | 22.89006 | 85.21779 | 36021 ft | 447 kts | 272° |
| 2026-05-05 03:54 | 22.89527 | 85.15058 | 36021 ft | 447 kts | 272° |
| 2026-05-05 03:55 | 22.90045 | 85.08335 | 36021 ft | 447 kts | 272° |
| 2026-05-05 03:55 | 22.90561 | 85.01616 | 36038 ft | 447 kts | 272° |
| 2026-05-05 03:56 | 22.91073 | 84.94908 | 36011 ft | 446 kts | 272° |
| 2026-05-05 03:56 | 22.91580 | 84.88222 | 36021 ft | 445 kts | 271° |
| 2026-05-05 03:57 | 22.92081 | 84.81586 | 36012 ft | 444 kts | 271° |
| 2026-05-05 03:57 | 22.92583 | 84.74897 | 36009 ft | 444 kts | 271° |
| 2026-05-05 03:58 | 22.93080 | 84.68231 | 36016 ft | 444 kts | 271° |
| 2026-05-05 03:58 | 22.93576 | 84.61552 | 36006 ft | 444 kts | 271° |
| 2026-05-05 03:59 | 22.94069 | 84.54865 | 36016 ft | 445 kts | 271° |
| 2026-05-05 03:59 | 22.94560 | 84.48160 | 36013 ft | 447 kts | 271° |
| 2026-05-05 04:00 | 22.95051 | 84.41428 | 36016 ft | 448 kts | 271° |
| 2026-05-05 04:00 | 22.95540 | 84.34686 | 36003 ft | 449 kts | 271° |
| 2026-05-05 04:01 | 22.96026 | 84.27940 | 36001 ft | 449 kts | 271° |
| 2026-05-05 04:01 | 22.96511 | 84.21176 | 36002 ft | 450 kts | 271° |
| 2026-05-05 04:02 | 22.96994 | 84.14403 | 36003 ft | 451 kts | 271° |
| 2026-05-05 04:02 | 22.97424 | 84.07619 | 36003 ft | 451 kts | 270° |
| 2026-05-05 04:03 | 22.97780 | 84.00825 | 35988 ft | 451 kts | 270° |
| 2026-05-05 04:03 | 22.98071 | 83.95183 | 35986 ft | 451 kts | 270° |
| 2026-05-05 04:04 | 22.98431 | 83.88382 | 35987 ft | 451 kts | 270° |
| 2026-05-05 04:04 | 22.98793 | 83.81595 | 36009 ft | 451 kts | 270° |
| 2026-05-05 04:05 | 22.99153 | 83.74795 | 35997 ft | 452 kts | 270° |
| 2026-05-05 04:05 | 22.99510 | 83.67981 | 35971 ft | 452 kts | 270° |
| 2026-05-05 04:06 | 22.99865 | 83.61168 | 35972 ft | 452 kts | 270° |
| 2026-05-05 04:06 | 23.00216 | 83.54358 | 35969 ft | 452 kts | 270° |
| 2026-05-05 04:07 | 23.00565 | 83.47544 | 35971 ft | 452 kts | 271° |
| 2026-05-05 04:07 | 23.00908 | 83.40782 | 35965 ft | 451 kts | 271° |
| 2026-05-05 04:08 | 23.01250 | 83.33993 | 35962 ft | 450 kts | 270° |
| 2026-05-05 04:08 | 23.01588 | 83.27218 | 35948 ft | 450 kts | 270° |
| 2026-05-05 04:09 | 23.01923 | 83.20443 | 35951 ft | 449 kts | 270° |
| 2026-05-05 04:09 | 23.02255 | 83.13676 | 35961 ft | 449 kts | 270° |
| 2026-05-05 04:10 | 23.02584 | 83.06909 | 35948 ft | 448 kts | 270° |
| 2026-05-05 04:10 | 23.02908 | 83.00163 | 35948 ft | 448 kts | 270° |
| 2026-05-05 04:11 | 23.03231 | 82.93417 | 35953 ft | 447 kts | 270° |
| 2026-05-05 04:11 | 23.03549 | 82.86676 | 35956 ft | 447 kts | 270° |
| 2026-05-05 04:12 | 23.03866 | 82.79924 | 35953 ft | 447 kts | 270° |
| 2026-05-05 04:12 | 23.04179 | 82.73183 | 35955 ft | 447 kts | 270° |
| 2026-05-05 04:13 | 23.04488 | 82.66473 | 35963 ft | 447 kts | 270° |
| 2026-05-05 04:13 | 23.04798 | 82.59687 | 35958 ft | 447 kts | 270° |
| 2026-05-05 04:14 | 23.05103 | 82.52946 | 35965 ft | 447 kts | 270° |
| 2026-05-05 04:14 | 23.05403 | 82.46239 | 35966 ft | 447 kts | 270° |
| 2026-05-05 04:15 | 23.05704 | 82.39459 | 35975 ft | 447 kts | 270° |
| 2026-05-05 04:15 | 23.05998 | 82.32746 | 35970 ft | 448 kts | 270° |
| 2026-05-05 04:16 | 23.06293 | 82.25955 | 35963 ft | 448 kts | 270° |
| 2026-05-05 04:16 | 23.06584 | 82.19236 | 35969 ft | 448 kts | 270° |
| 2026-05-05 04:17 | 23.06914 | 82.12439 | 35966 ft | 448 kts | 271° |
| 2026-05-05 04:17 | 23.07345 | 82.05721 | 35968 ft | 449 kts | 271° |
| 2026-05-05 04:18 | 23.07785 | 81.98971 | 35968 ft | 449 kts | 271° |
| 2026-05-05 04:18 | 23.08210 | 81.92209 | 35971 ft | 449 kts | 271° |
| 2026-05-05 04:19 | 23.08625 | 81.85443 | 35970 ft | 449 kts | 271° |
| 2026-05-05 04:19 | 23.09036 | 81.78679 | 35972 ft | 449 kts | 271° |
| 2026-05-05 04:20 | 23.09443 | 81.71920 | 35967 ft | 449 kts | 271° |
| 2026-05-05 04:20 | 23.09848 | 81.65156 | 35954 ft | 449 kts | 271° |
| 2026-05-05 04:21 | 23.10250 | 81.58388 | 35965 ft | 449 kts | 272° |
| 2026-05-05 04:21 | 23.10650 | 81.51620 | 35968 ft | 449 kts | 272° |
| 2026-05-05 04:22 | 23.11047 | 81.44849 | 35961 ft | 450 kts | 271° |
| 2026-05-05 04:22 | 23.11442 | 81.38051 | 35972 ft | 451 kts | 271° |
| 2026-05-05 04:23 | 23.11835 | 81.31245 | 35975 ft | 452 kts | 272° |
| 2026-05-05 04:23 | 23.12225 | 81.24428 | 35947 ft | 452 kts | 272° |
| 2026-05-05 04:24 | 23.12614 | 81.17606 | 35951 ft | 452 kts | 272° |
| 2026-05-05 04:25 | 23.13189 | 81.07404 | 35960 ft | 451 kts | 272° |
| 2026-05-05 04:25 | 23.13568 | 81.00608 | 35960 ft | 451 kts | 272° |
| 2026-05-05 04:26 | 23.13944 | 80.93817 | 35955 ft | 451 kts | 272° |
| 2026-05-05 04:26 | 23.14317 | 80.87016 | 35959 ft | 451 kts | 272° |
| 2026-05-05 04:27 | 23.14688 | 80.80218 | 35958 ft | 451 kts | 272° |
| 2026-05-05 04:27 | 23.15057 | 80.73420 | 35957 ft | 451 kts | 272° |
| 2026-05-05 04:28 | 23.15428 | 80.66614 | 35972 ft | 451 kts | 272° |
| 2026-05-05 04:28 | 23.15795 | 80.59850 | 35959 ft | 451 kts | 272° |
| 2026-05-05 04:29 | 23.16162 | 80.53005 | 35956 ft | 450 kts | 272° |
| 2026-05-05 04:29 | 23.16521 | 80.46275 | 35952 ft | 449 kts | 272° |
| 2026-05-05 04:30 | 23.16878 | 80.39504 | 35948 ft | 449 kts | 272° |
| 2026-05-05 04:30 | 23.17233 | 80.32731 | 35944 ft | 448 kts | 272° |
| 2026-05-05 04:31 | 23.17585 | 80.25954 | 36162 ft | 451 kts | 272° |
| 2026-05-05 04:31 | 23.17761 | 80.22551 | 36525 ft | 449 kts | 272° |
| 2026-05-05 04:31 | 23.17935 | 80.19170 | 36928 ft | 447 kts | 272° |
| 2026-05-05 04:31 | 23.18107 | 80.15809 | 37318 ft | 444 kts | 272° |
| 2026-05-05 04:32 | 23.18278 | 80.12458 | 37697 ft | 442 kts | 272° |
| 2026-05-05 04:32 | 23.18448 | 80.09118 | 37869 ft | 444 kts | 272° |
| 2026-05-05 04:32 | 23.18617 | 80.05760 | 37912 ft | 445 kts | 272° |
| 2026-05-05 04:33 | 23.18921 | 79.99051 | 37928 ft | 444 kts | 272° |
| 2026-05-05 04:33 | 23.19204 | 79.92369 | 37941 ft | 441 kts | 272° |
| 2026-05-05 04:34 | 23.19485 | 79.85776 | 37938 ft | 439 kts | 272° |
| 2026-05-05 04:34 | 23.19767 | 79.79150 | 37938 ft | 439 kts | 272° |